Terminal Aerodrome Forecast
Issued by NWS

Home | Current Version | Previous Version | Text Only | Print | Product List | Glossary On
Versions: 1 2 3 4 5 6 7 8 9 10 11 12 13 14 15 16 17 18
000
FTUS43 KFGF 191100
TAFTVF
TAF
KTVF 191139Z 1912/2012 18017G25KT P6SM BKN120
     FM191400 19012KT P6SM BKN120
      TEMPO 1914/1916 BKN015
     FM192100 24012KT P6SM BKN250
      AMD LTD TO CLD VIS AND WIND=

USA.gov is the U.S. government's official web portal to all federal, state and local government web resources and services.